Pagrindinis puslapis
METAR-TAF:

METAR-TAF

Oro uostai :

Prezidente Prudentė, San Paulas, Brazilija

platuma: 22-07S, ilguma: 051-23W, Aukštis: 436 m

Dabartinis oras

Ataskaita buvo paskelbta 1 valandą ir 18 minutes, ne 17:00 UTC
Vėjas 7 kt iš Šiaurės/Šiaurės Rytų
Temperatūra 34°C
Drėgmė 34%
Slėgis 1016 hPa
Matomumas 10 km arba daugiau
nėra debesų žemiau 1500 m ir nėra kamuolinių lietaus debesų

METAR: SBDN 241700Z 03007KT CAVOK 34/16 Q1016

Laikas: 15:18 (18:18 UTC)

Prognozė

Ataskaita buvo paskelbta 8 valandos ir 18 minutes, ne 10:00 UTC
Prognozė galioja nuo 24 metu 12 UTC su 24 metu 24 UTC
Vėjas 13 kt iš Rytų/Pietryčių
Matomumas 10 km arba daugiau
nėra debesų žemiau 1500 m ir nėra kamuolinių lietaus debesų

TAF: SBDN 241000Z 2412/2424 11013KT CAVOK TN25/2412Z TX33/2417ZRMK PGD

Orai ataskaitas ir orų prognozės (METAR, TAF).

turimą stotys yra geltonos ir raudonos taškus žemėlapyje.

Perkelti pele per norėdami pamatyti stoties vardą.

Tada spustelėkite, norėdami matyti oro stebėjimo ir prognozės.

Norėdami pakeisti žemėlapį: spustelėkite ant žalios mygtukų su juodo kryžiaus žemyn,; žalią mygtuką su brūkšneliu, jei norite nutolinti; arba žalių rodyklių gretimoms žemėlapius.


METAR-TAF: